Latest Weather Observations for Yarrawonga

IDV60801

Issued at 6:32 pm EST Tuesday 25 July 2017 (issued every 30 minutes, with the page automatically refreshed every 10 minutes)

About weather observations | Map of weather stations | Latest weather observations for VIC | Other Formats
Station Details ID: 081124 Name: YARRAWONGA Lat: -36.03 Lon: 146.03 Height: 128.9 m
Data from the previous 72 hours. | See also: Recent months at Yarrawonga
Date/Time
EST
Temp
°C
App
Temp
°C
Dew
Point
°C
Rel
Hum
%
Delta-T
°C
Wind Press
QNH
hPa
Press
MSL
hPa
Rain since
9am
mm
Dir  Spd
km/h
Gust
km/h
Spd
kts
Gust
kts
25/06:30pm 13.3 11.8 8.6 73 2.4 N 6 7 3 4 1014.8 1015.1 0.0
25/06:00pm 13.8 12.2 8.6 71 2.6 NNW 7 9 4 5 1014.7 1015.0 0.0
25/05:30pm 14.8 13.3 9.2 69 2.9 NNW 7 11 4 6 1014.8 1015.1 0.0
25/05:00pm 14.9 12.6 9.1 68 3.0 N 11 13 6 7 1014.7 1015.0 0.0
25/04:30pm 17.8 15.2 9.4 58 4.4 N 13 17 7 9 1014.8 1015.1 0.0
25/04:00pm 18.5 15.0 8.7 53 5.1 N 17 26 9 14 1015.2 1015.4 0.0
25/03:30pm 18.6 14.5 8.8 53 5.1 N 20 26 11 14 1015.3 1015.5 0.0
25/03:00pm 18.8 14.9 9.3 54 5.0 N 20 33 11 18 1015.9 1016.1 0.0
25/02:30pm 18.2 16.1 11.0 63 3.9 NNE 13 20 7 11 1016.3 1016.5 0.0
25/02:00pm 16.7 14.2 11.2 70 3.0 NE 15 20 8 11 1016.8 1017.0 0.0
25/01:30pm 15.5 13.6 10.5 72 2.7 NNE 11 19 6 10 1017.6 1017.8 0.0
25/01:00pm 14.9 12.1 10.1 73 2.5 NNE 15 22 8 12 1018.1 1018.3 0.0
25/12:30pm 13.7 10.8 9.7 77 2.1 NNE 15 24 8 13 1018.6 1018.9 0.0
25/12:00pm 12.8 10.2 9.4 80 1.7 NE 13 20 7 11 1019.3 1019.6 0.0
25/11:30am 11.3 8.4 8.3 82 1.5 NE 13 17 7 9 1020.2 1020.5 0.0
25/11:00am 11.1 9.0 8.3 83 1.4 NE 9 17 5 9 1020.9 1021.2 0.0
25/10:30am 9.6 6.7 8.2 91 0.7 NE 13 17 7 9 1021.3 1021.6 0.0
25/10:00am 8.5 5.8 7.3 92 0.6 ENE 11 17 6 9 1021.4 1021.7 0.0
25/09:30am 8.6 6.2 7.2 91 0.7 NE 9 15 5 8 1021.6 1021.9 0.0
25/09:00am 7.5 4.6 6.3 92 0.5 NE 11 15 6 8 1021.4 1021.7 0.0
25/08:30am 6.5 3.5 6.2 98 0.1 NE 11 20 6 11 1021.5 1021.8 0.0
25/08:00am 5.7 2.6 5.6 99 0.0 NE 11 13 6 7 1021.2 1021.5 0.0
25/07:30am 4.4 1.4 4.3 99 0.0 NE 9 11 5 6 1021.2 1021.5 0.0
25/07:00am 4.2 1.6 4.1 99 0.0 NE 7 11 4 6 1021.1 1021.4 0.0
25/06:30am 4.1 1.1 4.0 99 0.0 ENE 9 11 5 6 1020.9 1021.2 0.0
25/06:00am 4.1 1.1 4.0 99 0.0 NE 9 13 5 7 1020.9 1021.2 0.0
25/05:30am 4.2 1.2 4.1 99 0.0 NE 9 11 5 6 1020.7 1021.0 0.0
25/05:00am 3.7 0.6 3.6 99 0.0 ENE 9 11 5 6 1020.7 1021.0 0.0
25/04:30am 4.5 1.9 4.4 99 0.0 NE 7 9 4 5 1020.7 1021.0 0.0
25/04:00am 4.0 1.3 3.9 99 0.0 ENE 7 9 4 5 1020.8 1021.1 0.0
25/03:30am 4.3 1.9 4.2 99 0.0 ENE 6 7 3 4 1020.9 1021.2 0.0
25/03:00am 5.2 3.0 5.1 99 0.0 NNE 6 7 3 4 1020.9 1021.2 0.0
25/02:30am 6.1 4.0 6.0 99 0.0 NNE 6 7 3 4 1021.0 1021.3 0.0
25/02:00am 6.5 4.5 6.4 99 0.0 NE 6 9 3 5 1021.2 1021.5 0.0
25/01:30am 6.5 4.5 6.4 99 0.0 NE 6 7 3 4 1021.4 1021.7 0.0
25/01:00am 5.9 3.6 5.8 99 0.0 NE 7 9 4 5 1021.4 1021.7 0.0
25/12:30am 5.3 2.9 5.2 99 0.0 ENE 7 7 4 4 1021.5 1021.8 0.0
25/12:00am 5.1 2.6 5.0 99 0.0 NE 7 9 4 5 1021.5 1021.8 0.0
 
Date/Time
EST
Temp
°C
App
Temp
°C
Dew
Point
°C
Rel
Hum
%
Delta-T
°C
Wind Press
QNH
hPa
Press
MSL
hPa
Rain since
9am
mm
Dir  Spd
km/h
Gust
km/h
Spd
kts
Gust
kts
24/11:30pm 5.8 3.7 5.7 99 0.0 NE 6 6 3 3 1021.9 1022.2 0.0
24/11:00pm 5.3 2.9 5.2 99 0.0 NE 7 7 4 4 1022.0 1022.3 0.0
24/10:30pm 6.0 4.3 5.9 99 0.0 ENE 4 6 2 3 1022.0 1022.3 0.0
24/10:00pm 6.4 4.2 6.3 99 0.0 NNE 7 9 4 5 1022.0 1022.3 0.0
24/09:30pm 6.7 4.2 6.6 99 0.0 N 9 9 5 5 1022.1 1022.4 0.0
24/09:00pm 6.7 5.2 6.6 99 0.0 NE 4 6 2 3 1022.1 1022.4 0.0
24/08:30pm 7.0 5.1 6.7 98 0.1 NNE 6 7 3 4 1022.2 1022.5 0.0
24/08:00pm 7.7 6.0 7.4 98 0.1 NNE 6 7 3 4 1022.1 1022.4 0.0
24/07:30pm 8.2 6.4 7.8 97 0.2 NE 7 11 4 6 1021.7 1022.0 0.0
24/07:00pm 8.0 6.1 7.7 98 0.1 ENE 7 9 4 5 1021.5 1021.8 0.0
24/06:30pm 8.4 6.6 8.0 97 0.2 NE 7 9 4 5 1021.4 1021.7 0.0
24/06:00pm 9.0 7.3 8.2 95 0.4 ENE 7 9 4 5 1021.4 1021.7 0.0
24/05:30pm 9.5 7.9 8.6 94 0.4 E 7 9 4 5 1021.2 1021.5 0.0
24/05:00pm 10.7 9.2 9.1 90 0.8 ENE 7 9 4 5 1021.1 1021.4 0.0
24/04:30pm 11.5 9.6 9.2 86 1.2 ENE 9 11 5 6 1020.9 1021.2 0.0
24/04:00pm 12.0 11.4 9.0 82 1.5 SE 2 4 1 2 1020.9 1021.2 0.0
24/03:30pm 12.8 11.9 9.4 80 1.7 SSW 4 7 2 4 1021.0 1021.3 0.0
24/03:00pm 12.6 11.1 9.2 80 1.7 WSW 7 11 4 6 1021.4 1021.7 0.0
24/02:30pm 11.4 9.9 9.1 86 1.2 SW 7 13 4 7 1021.4 1021.7 0.0
24/02:00pm 11.1 9.1 8.8 86 1.1 WSW 9 13 5 7 1021.3 1021.6 0.0
24/01:30pm 12.0 10.7 10.1 88 1.0 WSW 7 13 4 7 1021.5 1021.8 0.0
24/01:00pm 9.5 8.0 8.6 94 0.4 W 6 9 3 5 1021.7 1022.0 0.0
24/12:30pm 8.7 7.3 8.7 100 0.0 W 6 11 3 6 1021.8 1022.1 0.0
24/12:00pm 7.7 7.2 7.7 100 0.0 CALM 0 4 0 2 1022.1 1022.4 0.0
24/11:30am 7.1 5.6 7.0 99 0.0 NE 4 6 2 3 1022.5 1022.8 0.0
24/11:00am 7.0 5.9 6.9 99 0.0 W 2 7 1 4 1022.7 1023.0 0.0
24/10:30am 6.5 4.5 6.4 99 0.0 NNW 6 9 3 5 1022.8 1023.1 0.0
24/10:00am 6.6 5.0 6.5 99 0.0 NW 4 9 2 5 1022.6 1022.9 0.0
24/09:30am 6.0 4.3 5.9 99 0.0 NNW 4 7 2 4 1022.3 1022.6 0.0
24/09:00am 6.1 4.0 6.0 99 0.0 NNW 6 7 3 4 1021.8 1022.1 1.0
24/08:30am 5.8 4.1 5.7 99 0.0 W 4 7 2 4 1021.4 1021.7 1.0
24/08:00am 5.8 3.7 5.7 99 0.0 WNW 6 6 3 3 1021.2 1021.5 1.0
24/07:30am 6.1 4.4 6.0 99 0.0 W 4 6 2 3 1020.9 1021.2 1.0
24/07:00am 6.3 4.1 6.2 99 0.0 WSW 7 11 4 6 1020.6 1020.9 1.0
24/06:30am 6.4 3.8 6.3 99 0.0 WSW 9 11 5 6 1020.1 1020.4 1.0
24/06:00am 6.6 4.7 6.5 99 0.0 WSW 6 9 3 5 1019.7 1020.0 1.0
24/05:30am 6.8 4.7 6.7 99 0.0 W 7 9 4 5 1019.6 1019.9 0.8
24/05:00am 6.9 4.5 6.8 99 0.0 WSW 9 9 5 5 1019.0 1019.3 0.8
24/04:30am 7.2 5.2 7.1 99 0.0 WSW 7 11 4 6 1018.6 1018.9 0.8
24/04:00am 7.3 4.9 7.2 99 0.0 WSW 9 13 5 7 1018.6 1018.9 0.8
24/03:30am 7.6 5.9 7.5 99 0.0 W 6 9 3 5 1018.4 1018.6 0.8
24/03:00am 8.1 5.9 8.0 99 0.0 W 9 15 5 8 1018.4 1018.6 0.8
24/02:30am 7.7 5.4 7.6 99 0.0 WNW 9 13 5 7 1018.4 1018.6 0.8
24/02:00am 6.6 4.5 6.5 99 0.0 W 7 9 4 5 1018.3 1018.5 0.8
24/01:30am 7.3 5.5 7.2 99 0.0 W 6 7 3 4 1018.2 1018.4 0.8
24/01:00am 8.2 6.4 8.1 99 0.0 W 7 11 4 6 1018.0 1018.2 0.8
24/12:30am 8.7 5.5 8.6 99 0.0 W 15 20 8 11 1017.8 1018.0 0.8
24/12:00am 8.8 5.6 8.5 98 0.1 WNW 15 20 8 11 1017.6 1017.8 0.8
 
Date/Time
EST
Temp
°C
App
Temp
°C
Dew
Point
°C
Rel
Hum
%
Delta-T
°C
Wind Press
QNH
hPa
Press
MSL
hPa
Rain since
9am
mm
Dir  Spd
km/h
Gust
km/h
Spd
kts
Gust
kts
23/11:30pm 9.1 6.3 8.5 96 0.3 WNW 13 19 7 10 1017.6 1017.8 0.8
23/11:00pm 9.3 6.5 8.7 96 0.3 WNW 13 19 7 10 1017.5 1017.7 0.8
23/10:30pm 9.5 6.4 8.9 96 0.3 W 15 22 8 12 1017.5 1017.7 0.8
23/10:00pm 9.6 6.9 8.8 95 0.4 W 13 17 7 9 1017.2 1017.4 0.8
23/09:30pm 9.7 7.4 8.9 95 0.4 W 11 15 6 8 1016.7 1016.9 0.8
23/09:00pm 9.9 8.1 9.4 97 0.2 W 9 13 5 7 1016.6 1016.8 0.8
23/08:30pm 10.4 8.7 9.9 97 0.3 WNW 9 13 5 7 1016.3 1016.5 0.8
23/08:00pm 10.7 9.1 10.1 96 0.3 WNW 9 13 5 7 1016.0 1016.2 0.8
23/07:30pm 11.0 9.4 10.2 95 0.4 WNW 9 15 5 8 1015.7 1015.9 0.6
23/07:00pm 11.1 8.4 10.2 94 0.5 W 15 20 8 11 1015.9 1016.1 0.6
23/06:30pm 11.9 9.8 9.8 87 1.1 W 11 22 6 12 1015.4 1015.6 0.4
23/06:00pm 11.8 10.9 9.2 84 1.3 N 4 6 2 3 1014.3 1014.6 0.0
23/05:30pm 12.0 10.5 9.2 83 1.4 NNE 7 9 4 5 1013.9 1014.2 0.0
23/05:00pm 12.9 11.7 9.4 79 1.8 NNE 6 7 3 4 1014.0 1014.3 0.0
23/04:30pm 13.9 12.4 9.3 74 2.4 NNE 7 11 4 6 1014.0 1014.3 0.0
23/04:00pm 14.9 13.0 9.1 68 3.0 N 9 13 5 7 1014.3 1014.6 0.0
23/03:30pm 14.8 12.5 9.0 68 3.0 NNW 11 13 6 7 1014.3 1014.6 0.0
23/03:00pm 14.4 13.4 8.8 69 2.9 NW 4 6 2 3 1014.3 1014.6 0.0
23/02:30pm 15.3 14.6 8.5 64 3.5 N 2 6 1 3 1014.5 1014.8 0.0
23/02:00pm 14.4 12.8 8.1 66 3.2 NNE 6 9 3 5 1014.5 1014.8 0.0
23/01:30pm 13.6 11.7 6.7 63 3.3 NNE 6 11 3 6 1014.7 1015.0 0.0
23/01:00pm 13.0 10.9 5.7 61 3.4 NE 6 9 3 5 1015.4 1015.6 0.0
23/12:30pm 12.7 10.5 5.1 60 3.5 NNE 6 11 3 6 1015.8 1016.0 0.0
23/12:00pm 11.9 9.3 4.4 60 3.4 NNE 7 11 4 6 1016.1 1016.3 0.0
23/11:30am 11.7 9.7 4.4 61 3.3 NE 4 7 2 4 1016.6 1016.8 0.0
23/11:00am 10.2 7.8 4.1 66 2.7 N 6 9 3 5 1016.9 1017.1 0.0
23/10:30am 9.8 6.7 3.8 66 2.6 NNE 9 13 5 7 1016.9 1017.1 0.0
23/10:00am 9.4 5.9 3.6 67 2.5 NNE 11 15 6 8 1016.8 1017.0 0.0
23/09:30am 8.9 5.4 3.3 68 2.4 NNE 11 17 6 9 1016.8 1017.0 0.0
23/09:00am 7.2 4.0 3.3 76 1.7 NNE 9 13 5 7 1016.9 1017.1 0.0
23/08:30am 6.8 4.0 3.1 77 1.6 NNE 7 13 4 7 1016.6 1016.8 0.0
23/08:00am 5.4 2.5 2.4 81 1.2 NE 7 11 4 6 1016.5 1016.7 0.0
23/07:30am 6.2 3.3 2.7 78 1.5 NNE 7 13 4 7 1016.5 1016.7 0.0
23/07:00am 6.1 2.9 2.9 80 1.3 NE 9 15 5 8 1016.3 1016.5 0.0
23/06:30am 5.9 2.7 2.9 81 1.2 NE 9 15 5 8 1016.3 1016.5 0.0
23/06:00am 5.9 2.3 2.9 81 1.2 NE 11 19 6 10 1016.2 1016.4 0.0
23/05:30am 6.5 2.9 3.1 79 1.4 NE 11 19 6 10 1016.1 1016.3 0.0
23/05:00am 6.8 2.6 3.6 80 1.4 NE 15 20 8 11 1016.1 1016.3 0.0
23/04:30am 6.7 2.8 3.5 80 1.4 NE 13 19 7 10 1016.2 1016.4 0.0
23/04:00am 6.5 2.7 3.7 82 1.2 NE 13 17 7 9 1016.7 1016.9 0.0
23/03:30am 6.9 3.1 3.9 81 1.3 NE 13 20 7 11 1016.9 1017.1 0.0
23/03:00am 6.8 2.7 4.1 83 1.2 ENE 15 20 8 11 1017.3 1017.5 0.0
23/02:30am 6.7 2.6 4.2 84 1.1 ENE 15 19 8 10 1017.6 1017.8 0.0
23/02:00am 6.8 2.7 4.3 84 1.1 ENE 15 19 8 10 1017.7 1017.9 0.0
23/01:30am 6.6 3.3 4.3 85 1.0 ENE 11 19 6 10 1017.9 1018.1 0.0
23/01:00am 6.1 2.7 4.1 87 0.9 ENE 11 13 6 7 1018.1 1018.3 0.0
23/12:30am 5.7 2.6 3.7 87 0.8 ENE 9 11 5 6 1018.3 1018.5 0.0
23/12:00am 5.8 3.1 3.6 86 0.9 NE 7 9 4 5 1018.5 1018.7 0.0
 
Date/Time
EST
Temp
°C
App
Temp
°C
Dew
Point
°C
Rel
Hum
%
Delta-T
°C
Wind Press
QNH
hPa
Press
MSL
hPa
Rain since
9am
mm
Dir  Spd
km/h
Gust
km/h
Spd
kts
Gust
kts
22/11:30pm 5.7 2.6 3.4 85 1.0 NE 9 13 5 7 1018.4 1018.6 0.0
22/11:00pm 5.9 2.8 3.6 85 1.0 ENE 9 13 5 7 1018.6 1018.9 0.0
22/10:30pm 6.2 3.1 3.5 83 1.1 NE 9 15 5 8 1018.7 1019.0 0.0
22/10:00pm 6.0 2.5 3.5 84 1.1 ENE 11 15 6 8 1018.7 1019.0 0.0
22/09:30pm 6.8 3.4 4.1 83 1.2 ENE 11 13 6 7 1018.9 1019.2 0.0
22/09:00pm 6.7 3.3 3.9 82 1.2 NE 11 15 6 8 1018.9 1019.2 0.0
22/08:30pm 7.3 3.1 3.9 79 1.5 ENE 15 19 8 10 1018.8 1019.1 0.0
22/08:00pm 8.2 4.1 4.2 76 1.8 ENE 15 20 8 11 1018.9 1019.2 0.0
22/07:30pm 8.4 4.7 4.6 77 1.7 ENE 13 19 7 10 1019.0 1019.3 0.0
22/07:00pm 8.0 4.3 4.6 79 1.5 NE 13 17 7 9 1019.2 1019.5 0.0

Other Formats:

Comma delimited format used in spreadsheet applications
http://www.bom.gov.au/fwo/IDV60801/IDV60801.94862.axf

JavaScript Object Notation format (JSON) in row-major order
http://www.bom.gov.au/fwo/IDV60801/IDV60801.94862.json